sensor_id;sensor_type;location;lat;lon;timestamp;P1;durP1;ratioP1;P2;durP2;ratioP2
43146;SDS011;28752;48.266;7.402;2023-04-22T00:00:10;7.43;;;4.80;;
43146;SDS011;28752;48.266;7.402;2023-04-22T00:02:36;6.82;;;4.93;;
43146;SDS011;28752;48.266;7.402;2023-04-22T00:05:05;6.80;;;5.18;;
43146;SDS011;28752;48.266;7.402;2023-04-22T00:07:31;6.70;;;5.00;;
43146;SDS011;28752;48.266;7.402;2023-04-22T00:09:57;9.03;;;5.07;;
43146;SDS011;28752;48.266;7.402;2023-04-22T00:12:22;9.20;;;5.20;;
43146;SDS011;28752;48.266;7.402;2023-04-22T00:14:48;5.97;;;4.20;;
43146;SDS011;28752;48.266;7.402;2023-04-22T00:17:13;7.33;;;4.50;;
43146;SDS011;28752;48.266;7.402;2023-04-22T00:19:39;6.50;;;4.30;;
43146;SDS011;28752;48.266;7.402;2023-04-22T00:22:05;6.45;;;4.40;;
43146;SDS011;28752;48.266;7.402;2023-04-22T00:24:30;7.50;;;4.67;;
43146;SDS011;28752;48.266;7.402;2023-04-22T00:26:56;6.68;;;4.68;;
43146;SDS011;28752;48.266;7.402;2023-04-22T00:29:22;6.77;;;4.63;;
43146;SDS011;28752;48.266;7.402;2023-04-22T00:31:47;6.43;;;4.60;;
43146;SDS011;28752;48.266;7.402;2023-04-22T00:34:12;7.90;;;5.30;;
43146;SDS011;28752;48.266;7.402;2023-04-22T00:36:38;7.57;;;5.37;;
43146;SDS011;28752;48.266;7.402;2023-04-22T00:39:03;8.10;;;5.30;;
43146;SDS011;28752;48.266;7.402;2023-04-22T00:41:28;6.30;;;4.43;;
43146;SDS011;28752;48.266;7.402;2023-04-22T00:43:55;7.25;;;4.43;;
43146;SDS011;28752;48.266;7.402;2023-04-22T00:51:12;6.27;;;4.03;;
43146;SDS011;28752;48.266;7.402;2023-04-22T00:53:37;5.33;;;3.60;;
43146;SDS011;28752;48.266;7.402;2023-04-22T00:56:02;5.40;;;3.83;;
43146;SDS011;28752;48.266;7.402;2023-04-22T00:58:28;5.70;;;3.85;;
43146;SDS011;28752;48.266;7.402;2023-04-22T01:00:54;5.82;;;3.83;;
43146;SDS011;28752;48.266;7.402;2023-04-22T01:03:20;6.50;;;3.75;;
43146;SDS011;28752;48.266;7.402;2023-04-22T01:05:49;7.88;;;3.92;;
43146;SDS011;28752;48.266;7.402;2023-04-22T01:08:15;6.15;;;3.65;;
43146;SDS011;28752;48.266;7.402;2023-04-22T01:10:41;6.13;;;3.95;;
43146;SDS011;28752;48.266;7.402;2023-04-22T01:13:07;6.43;;;3.78;;
43146;SDS011;28752;48.266;7.402;2023-04-22T01:15:32;7.10;;;4.05;;
43146;SDS011;28752;48.266;7.402;2023-04-22T01:17:58;6.43;;;4.00;;
43146;SDS011;28752;48.266;7.402;2023-04-22T01:20:26;6.93;;;3.92;;
43146;SDS011;28752;48.266;7.402;2023-04-22T01:22:54;7.50;;;3.60;;
43146;SDS011;28752;48.266;7.402;2023-04-22T01:25:21;5.55;;;3.58;;
43146;SDS011;28752;48.266;7.402;2023-04-22T01:32:39;4.80;;;3.20;;
43146;SDS011;28752;48.266;7.402;2023-04-22T01:39:56;5.30;;;3.50;;
43146;SDS011;28752;48.266;7.402;2023-04-22T01:42:23;5.93;;;3.58;;
43146;SDS011;28752;48.266;7.402;2023-04-22T01:44:49;5.57;;;3.42;;
43146;SDS011;28752;48.266;7.402;2023-04-22T01:47:14;7.37;;;3.97;;
43146;SDS011;28752;48.266;7.402;2023-04-22T01:49:39;6.47;;;4.23;;
43146;SDS011;28752;48.266;7.402;2023-04-22T01:52:05;6.23;;;3.63;;
43146;SDS011;28752;48.266;7.402;2023-04-22T01:54:30;5.50;;;3.60;;
43146;SDS011;28752;48.266;7.402;2023-04-22T01:56:56;6.28;;;3.80;;
43146;SDS011;28752;48.266;7.402;2023-04-22T01:59:22;6.55;;;3.67;;
43146;SDS011;28752;48.266;7.402;2023-04-22T02:01:48;8.65;;;4.47;;
43146;SDS011;28752;48.266;7.402;2023-04-22T02:04:13;8.33;;;4.73;;
43146;SDS011;28752;48.266;7.402;2023-04-22T02:06:39;8.93;;;5.00;;
43146;SDS011;28752;48.266;7.402;2023-04-22T02:09:04;9.73;;;5.32;;
43146;SDS011;28752;48.266;7.402;2023-04-22T02:11:30;9.10;;;5.77;;
43146;SDS011;28752;48.266;7.402;2023-04-22T02:13:55;8.60;;;5.47;;
43146;SDS011;28752;48.266;7.402;2023-04-22T02:16:21;8.67;;;5.30;;
43146;SDS011;28752;48.266;7.402;2023-04-22T02:18:46;7.13;;;4.60;;
43146;SDS011;28752;48.266;7.402;2023-04-22T02:21:11;6.57;;;4.40;;
43146;SDS011;28752;48.266;7.402;2023-04-22T02:23:37;7.25;;;4.18;;
43146;SDS011;28752;48.266;7.402;2023-04-22T02:28:29;7.95;;;4.50;;
43146;SDS011;28752;48.266;7.402;2023-04-22T02:30:55;6.53;;;4.10;;
43146;SDS011;28752;48.266;7.402;2023-04-22T02:33:20;7.87;;;4.97;;
43146;SDS011;28752;48.266;7.402;2023-04-22T02:35:46;6.60;;;4.47;;
43146;SDS011;28752;48.266;7.402;2023-04-22T02:38:14;8.50;;;4.88;;
43146;SDS011;28752;48.266;7.402;2023-04-22T02:40:39;7.07;;;4.40;;
43146;SDS011;28752;48.266;7.402;2023-04-22T02:43:05;6.57;;;4.10;;
43146;SDS011;28752;48.266;7.402;2023-04-22T02:45:30;6.60;;;4.13;;
43146;SDS011;28752;48.266;7.402;2023-04-22T02:47:55;5.70;;;3.80;;
43146;SDS011;28752;48.266;7.402;2023-04-22T02:50:21;7.47;;;4.40;;
43146;SDS011;28752;48.266;7.402;2023-04-22T02:52:46;7.30;;;4.20;;
43146;SDS011;28752;48.266;7.402;2023-04-22T02:55:11;6.50;;;3.90;;
43146;SDS011;28752;48.266;7.402;2023-04-22T02:57:37;6.90;;;4.23;;
43146;SDS011;28752;48.266;7.402;2023-04-22T03:00:02;7.13;;;4.43;;
43146;SDS011;28752;48.266;7.402;2023-04-22T03:02:28;7.55;;;4.88;;
43146;SDS011;28752;48.266;7.402;2023-04-22T03:04:54;7.07;;;4.53;;
43146;SDS011;28752;48.266;7.402;2023-04-22T03:07:19;6.57;;;4.20;;
43146;SDS011;28752;48.266;7.402;2023-04-22T03:09:44;8.23;;;4.53;;
43146;SDS011;28752;48.266;7.402;2023-04-22T03:12:10;8.13;;;4.83;;
43146;SDS011;28752;48.266;7.402;2023-04-22T03:14:35;7.20;;;4.53;;
43146;SDS011;28752;48.266;7.402;2023-04-22T03:17:00;7.13;;;4.80;;
43146;SDS011;28752;48.266;7.402;2023-04-22T03:19:26;7.47;;;4.53;;
43146;SDS011;28752;48.266;7.402;2023-04-22T03:21:51;7.13;;;4.93;;
43146;SDS011;28752;48.266;7.402;2023-04-22T03:24:16;8.50;;;5.70;;
43146;SDS011;28752;48.266;7.402;2023-04-22T03:26:42;9.48;;;5.50;;
43146;SDS011;28752;48.266;7.402;2023-04-22T03:29:08;8.98;;;5.95;;
43146;SDS011;28752;48.266;7.402;2023-04-22T03:31:33;8.30;;;5.67;;
43146;SDS011;28752;48.266;7.402;2023-04-22T03:33:58;7.83;;;5.63;;
43146;SDS011;28752;48.266;7.402;2023-04-22T03:36:24;7.73;;;5.37;;
43146;SDS011;28752;48.266;7.402;2023-04-22T03:38:51;8.55;;;6.00;;
43146;SDS011;28752;48.266;7.402;2023-04-22T03:41:16;8.30;;;5.93;;
43146;SDS011;28752;48.266;7.402;2023-04-22T03:43:41;9.03;;;6.13;;
43146;SDS011;28752;48.266;7.402;2023-04-22T03:46:07;9.77;;;6.33;;
43146;SDS011;28752;48.266;7.402;2023-04-22T03:48:32;9.23;;;6.03;;
43146;SDS011;28752;48.266;7.402;2023-04-22T03:50:59;9.45;;;7.07;;
43146;SDS011;28752;48.266;7.402;2023-04-22T03:53:26;10.75;;;6.35;;
43146;SDS011;28752;48.266;7.402;2023-04-22T03:55:51;9.70;;;6.90;;
43146;SDS011;28752;48.266;7.402;2023-04-22T03:58:17;9.03;;;5.83;;
43146;SDS011;28752;48.266;7.402;2023-04-22T04:00:42;8.00;;;5.67;;
43146;SDS011;28752;48.266;7.402;2023-04-22T04:03:08;9.98;;;6.32;;
43146;SDS011;28752;48.266;7.402;2023-04-22T04:05:33;8.97;;;6.07;;
43146;SDS011;28752;48.266;7.402;2023-04-22T04:07:59;9.07;;;6.45;;
43146;SDS011;28752;48.266;7.402;2023-04-22T04:10:25;8.50;;;6.10;;
43146;SDS011;28752;48.266;7.402;2023-04-22T04:12:50;9.05;;;6.00;;
43146;SDS011;28752;48.266;7.402;2023-04-22T04:15:16;8.63;;;5.13;;
43146;SDS011;28752;48.266;7.402;2023-04-22T04:17:42;8.00;;;5.18;;
43146;SDS011;28752;48.266;7.402;2023-04-22T04:20:08;9.23;;;5.20;;
43146;SDS011;28752;48.266;7.402;2023-04-22T04:22:34;8.98;;;6.35;;
43146;SDS011;28752;48.266;7.402;2023-04-22T04:25:00;8.40;;;5.80;;
43146;SDS011;28752;48.266;7.402;2023-04-22T04:27:26;10.15;;;6.65;;
43146;SDS011;28752;48.266;7.402;2023-04-22T04:29:51;9.40;;;5.68;;
43146;SDS011;28752;48.266;7.402;2023-04-22T04:32:17;8.43;;;5.80;;
43146;SDS011;28752;48.266;7.402;2023-04-22T04:34:43;8.83;;;6.10;;
43146;SDS011;28752;48.266;7.402;2023-04-22T04:37:08;10.07;;;6.83;;
43146;SDS011;28752;48.266;7.402;2023-04-22T04:39:33;8.77;;;6.17;;
43146;SDS011;28752;48.266;7.402;2023-04-22T04:41:59;7.87;;;5.20;;
43146;SDS011;28752;48.266;7.402;2023-04-22T04:44:24;8.27;;;5.30;;
43146;SDS011;28752;48.266;7.402;2023-04-22T04:46:55;11.15;;;5.75;;
43146;SDS011;28752;48.266;7.402;2023-04-22T04:49:21;9.07;;;5.15;;
43146;SDS011;28752;48.266;7.402;2023-04-22T04:51:47;7.32;;;5.28;;
43146;SDS011;28752;48.266;7.402;2023-04-22T04:54:13;7.55;;;4.68;;
43146;SDS011;28752;48.266;7.402;2023-04-22T04:56:38;8.50;;;4.70;;
43146;SDS011;28752;48.266;7.402;2023-04-22T04:59:04;7.00;;;5.07;;
43146;SDS011;28752;48.266;7.402;2023-04-22T05:01:29;7.73;;;5.00;;
43146;SDS011;28752;48.266;7.402;2023-04-22T05:03:55;6.53;;;4.43;;
43146;SDS011;28752;48.266;7.402;2023-04-22T05:06:20;8.80;;;5.40;;
43146;SDS011;28752;48.266;7.402;2023-04-22T05:08:46;7.33;;;4.37;;
43146;SDS011;28752;48.266;7.402;2023-04-22T05:11:11;6.10;;;4.40;;
43146;SDS011;28752;48.266;7.402;2023-04-22T05:13:36;7.27;;;4.60;;
43146;SDS011;28752;48.266;7.402;2023-04-22T05:16:02;7.80;;;5.07;;
43146;SDS011;28752;48.266;7.402;2023-04-22T05:18:27;7.37;;;4.50;;
43146;SDS011;28752;48.266;7.402;2023-04-22T05:20:53;8.17;;;4.90;;
43146;SDS011;28752;48.266;7.402;2023-04-22T05:23:18;7.77;;;4.43;;
43146;SDS011;28752;48.266;7.402;2023-04-22T05:25:43;6.17;;;4.60;;
43146;SDS011;28752;48.266;7.402;2023-04-22T05:28:09;6.57;;;4.27;;
43146;SDS011;28752;48.266;7.402;2023-04-22T05:30:34;8.00;;;4.80;;
43146;SDS011;28752;48.266;7.402;2023-04-22T05:33:00;8.73;;;5.55;;
43146;SDS011;28752;48.266;7.402;2023-04-22T05:35:25;8.93;;;4.90;;
43146;SDS011;28752;48.266;7.402;2023-04-22T05:37:51;6.97;;;4.80;;
43146;SDS011;28752;48.266;7.402;2023-04-22T05:40:16;7.33;;;4.77;;
43146;SDS011;28752;48.266;7.402;2023-04-22T05:42:42;6.63;;;4.77;;
43146;SDS011;28752;48.266;7.402;2023-04-22T05:45:07;7.17;;;4.97;;
43146;SDS011;28752;48.266;7.402;2023-04-22T05:47:33;6.50;;;4.53;;
43146;SDS011;28752;48.266;7.402;2023-04-22T05:49:58;7.23;;;4.93;;
43146;SDS011;28752;48.266;7.402;2023-04-22T05:52:23;7.07;;;5.37;;
43146;SDS011;28752;48.266;7.402;2023-04-22T05:54:49;7.53;;;4.73;;
43146;SDS011;28752;48.266;7.402;2023-04-22T05:57:14;6.37;;;4.30;;
43146;SDS011;28752;48.266;7.402;2023-04-22T05:59:40;7.75;;;5.13;;
43146;SDS011;28752;48.266;7.402;2023-04-22T06:02:05;7.20;;;4.93;;
43146;SDS011;28752;48.266;7.402;2023-04-22T06:04:31;6.97;;;4.77;;
43146;SDS011;28752;48.266;7.402;2023-04-22T06:06:56;7.40;;;5.17;;
43146;SDS011;28752;48.266;7.402;2023-04-22T06:09:21;6.57;;;4.67;;
43146;SDS011;28752;48.266;7.402;2023-04-22T06:11:47;8.07;;;5.60;;
43146;SDS011;28752;48.266;7.402;2023-04-22T06:14:12;7.22;;;5.38;;
43146;SDS011;28752;48.266;7.402;2023-04-22T06:16:38;7.10;;;4.47;;
43146;SDS011;28752;48.266;7.402;2023-04-22T06:19:06;7.88;;;4.60;;
43146;SDS011;28752;48.266;7.402;2023-04-22T06:21:32;6.88;;;4.25;;
43146;SDS011;28752;48.266;7.402;2023-04-22T06:23:58;5.90;;;3.83;;
43146;SDS011;28752;48.266;7.402;2023-04-22T06:28:49;6.15;;;3.60;;
43146;SDS011;28752;48.266;7.402;2023-04-22T06:31:15;6.10;;;3.90;;
43146;SDS011;28752;48.266;7.402;2023-04-22T06:33:40;6.18;;;3.90;;
43146;SDS011;28752;48.266;7.402;2023-04-22T06:36:05;5.93;;;3.63;;
43146;SDS011;28752;48.266;7.402;2023-04-22T06:38:31;5.72;;;3.92;;
43146;SDS011;28752;48.266;7.402;2023-04-22T06:40:56;7.03;;;4.15;;
43146;SDS011;28752;48.266;7.402;2023-04-22T06:45:47;5.60;;;4.10;;
43146;SDS011;28752;48.266;7.402;2023-04-22T06:50:37;6.30;;;3.37;;
43146;SDS011;28752;48.266;7.402;2023-04-22T06:55:28;5.90;;;3.97;;
43146;SDS011;28752;48.266;7.402;2023-04-22T07:02:44;4.35;;;2.88;;
43146;SDS011;28752;48.266;7.402;2023-04-22T07:05:10;5.57;;;3.10;;
43146;SDS011;28752;48.266;7.402;2023-04-22T07:07:35;4.22;;;2.88;;
43146;SDS011;28752;48.266;7.402;2023-04-22T07:10:00;4.63;;;2.67;;
43146;SDS011;28752;48.266;7.402;2023-04-22T07:12:26;8.57;;;5.30;;
43146;SDS011;28752;48.266;7.402;2023-04-22T07:14:51;29.42;;;6.20;;
43146;SDS011;28752;48.266;7.402;2023-04-22T07:17:17;11.45;;;3.15;;
43146;SDS011;28752;48.266;7.402;2023-04-22T07:19:45;16.38;;;3.55;;
43146;SDS011;28752;48.266;7.402;2023-04-22T07:22:11;12.35;;;3.10;;
43146;SDS011;28752;48.266;7.402;2023-04-22T07:24:36;4.10;;;2.60;;
43146;SDS011;28752;48.266;7.402;2023-04-22T07:27:02;7.03;;;3.00;;
43146;SDS011;28752;48.266;7.402;2023-04-22T07:34:18;7.23;;;3.40;;
43146;SDS011;28752;48.266;7.402;2023-04-22T07:39:09;6.33;;;3.23;;
43146;SDS011;28752;48.266;7.402;2023-04-22T07:41:34;6.28;;;3.60;;
43146;SDS011;28752;48.266;7.402;2023-04-22T07:44:00;5.47;;;3.33;;
43146;SDS011;28752;48.266;7.402;2023-04-22T07:46:27;5.22;;;3.30;;
43146;SDS011;28752;48.266;7.402;2023-04-22T07:48:53;4.80;;;3.67;;
43146;SDS011;28752;48.266;7.402;2023-04-22T07:51:18;6.38;;;4.00;;
43146;SDS011;28752;48.266;7.402;2023-04-22T07:53:44;7.33;;;3.87;;
43146;SDS011;28752;48.266;7.402;2023-04-22T07:56:09;9.65;;;4.53;;
43146;SDS011;28752;48.266;7.402;2023-04-22T07:58:35;9.00;;;4.80;;
43146;SDS011;28752;48.266;7.402;2023-04-22T08:01:00;8.40;;;4.67;;
43146;SDS011;28752;48.266;7.402;2023-04-22T08:03:25;6.28;;;4.10;;
43146;SDS011;28752;48.266;7.402;2023-04-22T08:05:51;6.57;;;3.63;;
43146;SDS011;28752;48.266;7.402;2023-04-22T08:08:16;5.13;;;3.40;;
43146;SDS011;28752;48.266;7.402;2023-04-22T08:10:41;5.13;;;3.72;;
43146;SDS011;28752;48.266;7.402;2023-04-22T08:13:07;6.28;;;4.10;;
43146;SDS011;28752;48.266;7.402;2023-04-22T08:15:32;5.43;;;3.60;;
43146;SDS011;28752;48.266;7.402;2023-04-22T08:17:58;6.32;;;3.63;;
43146;SDS011;28752;48.266;7.402;2023-04-22T08:20:23;5.25;;;3.03;;
43146;SDS011;28752;48.266;7.402;2023-04-22T08:25:15;5.60;;;2.97;;
43146;SDS011;28752;48.266;7.402;2023-04-22T08:27:41;4.40;;;2.83;;
43146;SDS011;28752;48.266;7.402;2023-04-22T08:30:06;5.57;;;2.92;;
43146;SDS011;28752;48.266;7.402;2023-04-22T08:32:32;4.63;;;2.72;;
43146;SDS011;28752;48.266;7.402;2023-04-22T08:34:57;5.00;;;2.47;;
43146;SDS011;28752;48.266;7.402;2023-04-22T08:37:23;4.47;;;2.60;;
43146;SDS011;28752;48.266;7.402;2023-04-22T08:39:49;5.10;;;2.38;;
43146;SDS011;28752;48.266;7.402;2023-04-22T08:42:14;5.23;;;2.80;;
43146;SDS011;28752;48.266;7.402;2023-04-22T08:44:40;4.67;;;2.20;;
43146;SDS011;28752;48.266;7.402;2023-04-22T08:47:06;5.43;;;2.03;;
43146;SDS011;28752;48.266;7.402;2023-04-22T08:49:33;4.13;;;1.98;;
43146;SDS011;28752;48.266;7.402;2023-04-22T08:52:00;4.38;;;2.10;;
43146;SDS011;28752;48.266;7.402;2023-04-22T08:54:25;4.95;;;2.10;;
43146;SDS011;28752;48.266;7.402;2023-04-22T08:56:51;4.68;;;2.15;;
43146;SDS011;28752;48.266;7.402;2023-04-22T08:59:17;4.28;;;2.00;;
43146;SDS011;28752;48.266;7.402;2023-04-22T09:01:44;4.28;;;1.83;;
43146;SDS011;28752;48.266;7.402;2023-04-22T09:04:15;3.70;;;1.80;;
43146;SDS011;28752;48.266;7.402;2023-04-22T09:06:42;3.25;;;1.90;;
43146;SDS011;28752;48.266;7.402;2023-04-22T09:09:08;3.97;;;2.08;;
43146;SDS011;28752;48.266;7.402;2023-04-22T09:11:34;5.13;;;2.00;;
43146;SDS011;28752;48.266;7.402;2023-04-22T09:14:04;3.88;;;2.00;;
43146;SDS011;28752;48.266;7.402;2023-04-22T09:16:31;3.25;;;1.88;;
43146;SDS011;28752;48.266;7.402;2023-04-22T09:18:57;4.55;;;2.00;;
43146;SDS011;28752;48.266;7.402;2023-04-22T09:21:26;5.47;;;2.17;;
43146;SDS011;28752;48.266;7.402;2023-04-22T09:23:53;4.30;;;2.35;;
43146;SDS011;28752;48.266;7.402;2023-04-22T09:26:20;4.53;;;1.98;;
43146;SDS011;28752;48.266;7.402;2023-04-22T09:28:48;4.20;;;2.20;;
43146;SDS011;28752;48.266;7.402;2023-04-22T09:31:18;4.78;;;2.05;;
43146;SDS011;28752;48.266;7.402;2023-04-22T09:33:48;4.63;;;1.98;;
43146;SDS011;28752;48.266;7.402;2023-04-22T09:36:21;4.55;;;2.38;;
43146;SDS011;28752;48.266;7.402;2023-04-22T09:39:06;3.53;;;1.90;;
43146;SDS011;28752;48.266;7.402;2023-04-22T09:41:33;3.78;;;1.95;;
43146;SDS011;28752;48.266;7.402;2023-04-22T09:44:00;3.17;;;1.95;;
43146;SDS011;28752;48.266;7.402;2023-04-22T09:46:27;3.45;;;2.30;;
43146;SDS011;28752;48.266;7.402;2023-04-22T09:48:54;4.75;;;2.60;;
43146;SDS011;28752;48.266;7.402;2023-04-22T09:51:20;4.65;;;2.28;;
43146;SDS011;28752;48.266;7.402;2023-04-22T09:56:21;4.68;;;2.13;;
43146;SDS011;28752;48.266;7.402;2023-04-22T09:58:50;3.53;;;2.20;;
43146;SDS011;28752;48.266;7.402;2023-04-22T10:01:17;3.95;;;2.10;;
43146;SDS011;28752;48.266;7.402;2023-04-22T10:03:43;5.63;;;2.40;;
43146;SDS011;28752;48.266;7.402;2023-04-22T10:06:09;5.35;;;2.20;;
43146;SDS011;28752;48.266;7.402;2023-04-22T10:08:34;4.95;;;2.08;;
43146;SDS011;28752;48.266;7.402;2023-04-22T10:11:00;3.50;;;1.90;;
43146;SDS011;28752;48.266;7.402;2023-04-22T10:13:26;8.93;;;5.15;;
43146;SDS011;28752;48.266;7.402;2023-04-22T10:15:51;9.60;;;5.13;;
43146;SDS011;28752;48.266;7.402;2023-04-22T10:18:23;33.38;;;16.65;;
43146;SDS011;28752;48.266;7.402;2023-04-22T10:20:52;35.38;;;16.98;;
43146;SDS011;28752;48.266;7.402;2023-04-22T10:23:21;21.67;;;9.60;;
43146;SDS011;28752;48.266;7.402;2023-04-22T10:25:49;31.27;;;13.50;;
43146;SDS011;28752;48.266;7.402;2023-04-22T10:28:17;6.05;;;3.70;;
43146;SDS011;28752;48.266;7.402;2023-04-22T10:30:42;3.42;;;1.80;;
43146;SDS011;28752;48.266;7.402;2023-04-22T10:38:32;4.78;;;1.80;;
43146;SDS011;28752;48.266;7.402;2023-04-22T10:40:58;4.82;;;2.42;;
43146;SDS011;28752;48.266;7.402;2023-04-22T10:43:40;5.65;;;2.10;;
43146;SDS011;28752;48.266;7.402;2023-04-22T10:46:05;4.80;;;2.05;;
43146;SDS011;28752;48.266;7.402;2023-04-22T10:48:46;5.38;;;2.20;;
43146;SDS011;28752;48.266;7.402;2023-04-22T10:54:05;4.65;;;1.88;;
43146;SDS011;28752;48.266;7.402;2023-04-22T10:56:31;3.40;;;2.00;;
43146;SDS011;28752;48.266;7.402;2023-04-22T10:58:56;3.88;;;1.80;;
43146;SDS011;28752;48.266;7.402;2023-04-22T11:01:22;4.72;;;1.90;;
43146;SDS011;28752;48.266;7.402;2023-04-22T11:03:48;6.32;;;2.47;;
43146;SDS011;28752;48.266;7.402;2023-04-22T11:06:16;3.30;;;1.60;;
43146;SDS011;28752;48.266;7.402;2023-04-22T11:08:46;4.45;;;1.98;;
43146;SDS011;28752;48.266;7.402;2023-04-22T11:11:13;5.72;;;1.80;;
43146;SDS011;28752;48.266;7.402;2023-04-22T11:13:41;4.63;;;1.70;;
43146;SDS011;28752;48.266;7.402;2023-04-22T11:16:11;7.57;;;2.50;;
43146;SDS011;28752;48.266;7.402;2023-04-22T11:18:37;3.05;;;1.52;;
43146;SDS011;28752;48.266;7.402;2023-04-22T11:21:03;4.43;;;1.63;;
43146;SDS011;28752;48.266;7.402;2023-04-22T11:23:33;4.90;;;2.15;;
43146;SDS011;28752;48.266;7.402;2023-04-22T11:26:04;4.05;;;1.90;;
43146;SDS011;28752;48.266;7.402;2023-04-22T11:28:31;3.67;;;1.75;;
43146;SDS011;28752;48.266;7.402;2023-04-22T11:31:06;3.38;;;1.70;;
43146;SDS011;28752;48.266;7.402;2023-04-22T11:33:35;3.00;;;1.65;;
43146;SDS011;28752;48.266;7.402;2023-04-22T11:36:03;4.18;;;2.05;;
43146;SDS011;28752;48.266;7.402;2023-04-22T11:38:29;4.97;;;1.75;;
43146;SDS011;28752;48.266;7.402;2023-04-22T11:40:55;6.22;;;4.22;;
43146;SDS011;28752;48.266;7.402;2023-04-22T11:43:22;4.60;;;1.90;;
43146;SDS011;28752;48.266;7.402;2023-04-22T11:45:48;3.63;;;1.67;;
43146;SDS011;28752;48.266;7.402;2023-04-22T11:48:13;3.45;;;1.85;;
43146;SDS011;28752;48.266;7.402;2023-04-22T11:50:41;4.72;;;2.00;;
43146;SDS011;28752;48.266;7.402;2023-04-22T11:53:13;3.22;;;1.88;;
43146;SDS011;28752;48.266;7.402;2023-04-22T11:55:38;3.97;;;1.83;;
43146;SDS011;28752;48.266;7.402;2023-04-22T12:05:45;3.45;;;1.88;;
43146;SDS011;28752;48.266;7.402;2023-04-22T12:08:19;4.68;;;1.75;;
43146;SDS011;28752;48.266;7.402;2023-04-22T12:10:47;4.88;;;1.83;;
43146;SDS011;28752;48.266;7.402;2023-04-22T12:13:20;4.70;;;1.77;;
43146;SDS011;28752;48.266;7.402;2023-04-22T12:15:47;4.32;;;1.70;;
43146;SDS011;28752;48.266;7.402;2023-04-22T12:18:26;3.55;;;1.70;;
43146;SDS011;28752;48.266;7.402;2023-04-22T12:21:01;4.85;;;1.70;;
43146;SDS011;28752;48.266;7.402;2023-04-22T12:26:12;4.20;;;1.48;;
43146;SDS011;28752;48.266;7.402;2023-04-22T12:28:40;3.00;;;1.70;;
43146;SDS011;28752;48.266;7.402;2023-04-22T12:31:07;5.75;;;1.80;;
43146;SDS011;28752;48.266;7.402;2023-04-22T12:33:34;2.88;;;1.73;;
43146;SDS011;28752;48.266;7.402;2023-04-22T12:36:00;4.13;;;1.88;;
43146;SDS011;28752;48.266;7.402;2023-04-22T12:38:26;4.43;;;1.60;;
43146;SDS011;28752;48.266;7.402;2023-04-22T12:43:17;4.45;;;1.90;;
43146;SDS011;28752;48.266;7.402;2023-04-22T12:48:08;7.60;;;2.00;;
43146;SDS011;28752;48.266;7.402;2023-04-22T12:55:24;3.47;;;1.60;;
43146;SDS011;28752;48.266;7.402;2023-04-22T13:02:41;3.33;;;1.50;;
43146;SDS011;28752;48.266;7.402;2023-04-22T13:05:07;5.10;;;1.38;;
43146;SDS011;28752;48.266;7.402;2023-04-22T13:07:35;3.40;;;1.50;;
43146;SDS011;28752;48.266;7.402;2023-04-22T13:10:01;4.35;;;1.58;;
43146;SDS011;28752;48.266;7.402;2023-04-22T13:12:27;2.85;;;1.30;;
43146;SDS011;28752;48.266;7.402;2023-04-22T13:14:52;4.57;;;1.77;;
43146;SDS011;28752;48.266;7.402;2023-04-22T13:17:18;3.93;;;1.57;;
43146;SDS011;28752;48.266;7.402;2023-04-22T13:19:43;3.38;;;1.60;;
43146;SDS011;28752;48.266;7.402;2023-04-22T13:22:10;3.85;;;1.40;;
43146;SDS011;28752;48.266;7.402;2023-04-22T13:24:36;2.40;;;1.17;;
43146;SDS011;28752;48.266;7.402;2023-04-22T13:27:01;4.97;;;1.63;;
43146;SDS011;28752;48.266;7.402;2023-04-22T13:29:26;2.67;;;1.33;;
43146;SDS011;28752;48.266;7.402;2023-04-22T13:31:52;4.25;;;1.65;;
43146;SDS011;28752;48.266;7.402;2023-04-22T13:34:17;3.20;;;1.17;;
43146;SDS011;28752;48.266;7.402;2023-04-22T13:36:43;2.90;;;1.30;;
43146;SDS011;28752;48.266;7.402;2023-04-22T13:39:08;2.87;;;1.60;;
43146;SDS011;28752;48.266;7.402;2023-04-22T13:41:34;3.10;;;1.55;;
43146;SDS011;28752;48.266;7.402;2023-04-22T13:44:00;2.85;;;1.27;;
43146;SDS011;28752;48.266;7.402;2023-04-22T13:46:25;3.95;;;1.40;;
43146;SDS011;28752;48.266;7.402;2023-04-22T13:48:52;4.80;;;1.73;;
43146;SDS011;28752;48.266;7.402;2023-04-22T13:51:18;3.83;;;1.40;;
43146;SDS011;28752;48.266;7.402;2023-04-22T13:53:43;3.53;;;1.57;;
43146;SDS011;28752;48.266;7.402;2023-04-22T13:56:09;3.38;;;1.33;;
43146;SDS011;28752;48.266;7.402;2023-04-22T13:58:35;3.15;;;1.40;;
43146;SDS011;28752;48.266;7.402;2023-04-22T14:01:02;4.25;;;1.33;;
43146;SDS011;28752;48.266;7.402;2023-04-22T14:03:28;3.45;;;1.42;;
43146;SDS011;28752;48.266;7.402;2023-04-22T14:05:54;3.00;;;1.40;;
43146;SDS011;28752;48.266;7.402;2023-04-22T14:08:20;3.63;;;1.55;;
43146;SDS011;28752;48.266;7.402;2023-04-22T14:10:45;3.38;;;1.40;;
43146;SDS011;28752;48.266;7.402;2023-04-22T14:13:11;4.32;;;1.42;;
43146;SDS011;28752;48.266;7.402;2023-04-22T14:15:37;2.80;;;1.40;;
43146;SDS011;28752;48.266;7.402;2023-04-22T14:18:02;2.83;;;1.48;;
43146;SDS011;28752;48.266;7.402;2023-04-22T14:20:28;3.30;;;1.27;;
43146;SDS011;28752;48.266;7.402;2023-04-22T14:22:53;4.80;;;1.70;;
43146;SDS011;28752;48.266;7.402;2023-04-22T14:25:19;5.67;;;1.53;;
43146;SDS011;28752;48.266;7.402;2023-04-22T14:27:44;3.63;;;1.40;;
43146;SDS011;28752;48.266;7.402;2023-04-22T14:30:10;4.65;;;1.30;;
43146;SDS011;28752;48.266;7.402;2023-04-22T14:35:01;3.38;;;1.65;;
43146;SDS011;28752;48.266;7.402;2023-04-22T14:37:27;3.38;;;1.73;;
43146;SDS011;28752;48.266;7.402;2023-04-22T14:39:52;3.38;;;1.60;;
43146;SDS011;28752;48.266;7.402;2023-04-22T14:42:18;5.25;;;1.88;;
43146;SDS011;28752;48.266;7.402;2023-04-22T14:44:44;3.13;;;1.63;;
43146;SDS011;28752;48.266;7.402;2023-04-22T14:47:09;4.43;;;1.60;;
43146;SDS011;28752;48.266;7.402;2023-04-22T14:49:35;3.85;;;1.60;;
43146;SDS011;28752;48.266;7.402;2023-04-22T14:52:00;3.38;;;1.58;;
43146;SDS011;28752;48.266;7.402;2023-04-22T14:54:26;3.50;;;1.52;;
43146;SDS011;28752;48.266;7.402;2023-04-22T14:56:52;4.93;;;1.70;;
43146;SDS011;28752;48.266;7.402;2023-04-22T14:59:19;4.05;;;1.65;;
43146;SDS011;28752;48.266;7.402;2023-04-22T15:01:46;5.30;;;1.58;;
43146;SDS011;28752;48.266;7.402;2023-04-22T15:04:11;4.93;;;1.85;;
43146;SDS011;28752;48.266;7.402;2023-04-22T15:06:38;2.85;;;1.60;;
43146;SDS011;28752;48.266;7.402;2023-04-22T15:09:04;4.57;;;1.63;;
43146;SDS011;28752;48.266;7.402;2023-04-22T15:11:30;3.88;;;1.67;;
43146;SDS011;28752;48.266;7.402;2023-04-22T15:13:55;3.80;;;1.70;;
43146;SDS011;28752;48.266;7.402;2023-04-22T15:16:20;4.07;;;1.73;;
43146;SDS011;28752;48.266;7.402;2023-04-22T15:18:46;2.97;;;1.70;;
43146;SDS011;28752;48.266;7.402;2023-04-22T15:21:12;3.95;;;1.70;;
43146;SDS011;28752;48.266;7.402;2023-04-22T15:23:37;3.20;;;1.50;;
43146;SDS011;28752;48.266;7.402;2023-04-22T15:26:02;2.77;;;1.20;;
43146;SDS011;28752;48.266;7.402;2023-04-22T15:28:28;3.17;;;1.38;;
43146;SDS011;28752;48.266;7.402;2023-04-22T15:30:53;3.07;;;1.67;;
43146;SDS011;28752;48.266;7.402;2023-04-22T15:33:19;3.90;;;1.40;;
43146;SDS011;28752;48.266;7.402;2023-04-22T15:35:44;2.83;;;1.40;;
43146;SDS011;28752;48.266;7.402;2023-04-22T15:38:11;3.90;;;1.40;;
43146;SDS011;28752;48.266;7.402;2023-04-22T15:40:37;4.00;;;1.42;;
43146;SDS011;28752;48.266;7.402;2023-04-22T15:43:02;4.83;;;1.70;;
43146;SDS011;28752;48.266;7.402;2023-04-22T15:45:27;4.15;;;1.75;;
43146;SDS011;28752;48.266;7.402;2023-04-22T15:47:53;5.50;;;1.90;;
43146;SDS011;28752;48.266;7.402;2023-04-22T15:50:19;6.20;;;2.45;;
43146;SDS011;28752;48.266;7.402;2023-04-22T15:52:47;7.68;;;2.40;;
43146;SDS011;28752;48.266;7.402;2023-04-22T15:55:12;6.43;;;2.22;;
43146;SDS011;28752;48.266;7.402;2023-04-22T15:57:37;4.47;;;1.97;;
43146;SDS011;28752;48.266;7.402;2023-04-22T16:00:03;3.40;;;1.77;;